createdAt,value
2019-01-30T00:13:15.828Z,8.43
2019-01-30T01:29:38.842Z,6.70
2019-01-30T01:53:35.116Z,6.30
2019-01-30T02:07:40.807Z,9.47
2019-01-30T02:10:13.083Z,10.27
2019-01-30T02:12:43.101Z,10.57
2019-01-30T02:15:15.754Z,10.00
2019-01-30T02:17:45.141Z,10.05
2019-01-30T02:20:19.599Z,13.28
2019-01-30T02:22:48.952Z,12.67
2019-01-30T02:25:18.332Z,11.70
2019-01-30T02:27:47.731Z,11.30
2019-01-30T02:30:22.004Z,8.65
2019-01-30T02:32:51.527Z,7.90
2019-01-30T02:35:26.866Z,8.37
2019-01-30T02:37:56.392Z,9.17
2019-01-30T02:40:26.232Z,8.70
2019-01-30T02:42:56.336Z,7.97
2019-01-30T02:45:31.742Z,8.57
2019-01-30T02:48:01.995Z,8.95
2019-01-30T02:50:34.891Z,9.48
2019-01-30T02:53:03.432Z,8.80
2019-01-30T02:55:33.340Z,9.23
2019-01-30T02:58:03.469Z,7.57
2019-01-30T03:00:36.821Z,8.80
2019-01-30T03:03:06.419Z,8.17
2019-01-30T03:05:36.764Z,7.50
2019-01-30T03:08:06.664Z,8.10
2019-01-30T03:10:36.612Z,9.28
2019-01-30T03:13:06.916Z,9.90
2019-01-30T03:15:39.654Z,11.10
2019-01-30T03:18:10.336Z,10.50
2019-01-30T03:20:39.695Z,9.10
2019-01-30T03:23:10.267Z,8.35
2019-01-30T03:25:42.355Z,9.33
2019-01-30T03:28:13.466Z,9.70
2019-01-30T03:30:43.897Z,9.30
2019-01-30T03:33:13.320Z,8.50
2019-01-30T03:35:42.744Z,8.13
2019-01-30T03:38:15.632Z,8.48
2019-01-30T03:40:45.229Z,8.03
2019-01-30T03:43:16.647Z,8.43
2019-01-30T03:45:46.649Z,7.95
2019-01-30T03:48:17.271Z,7.60
2019-01-30T03:50:50.124Z,9.30
2019-01-30T03:53:20.821Z,8.40
2019-01-30T03:55:51.620Z,8.80
2019-01-30T03:58:21.100Z,8.47
2019-01-30T04:00:50.913Z,7.37
2019-01-30T04:03:21.996Z,8.97
2019-01-30T04:05:51.381Z,8.90
2019-01-30T04:08:24.312Z,8.20
2019-01-30T04:10:53.709Z,8.17
2019-01-30T04:13:23.091Z,7.55
2019-01-30T04:15:59.012Z,8.00
2019-01-30T04:18:28.450Z,7.53
2019-01-30T04:20:57.833Z,8.40
2019-01-30T04:23:29.914Z,7.47
2019-01-30T04:25:59.248Z,8.95
2019-01-30T04:28:29.457Z,8.07
2019-01-30T04:30:58.973Z,9.20
2019-01-30T04:33:28.354Z,7.62
2019-01-30T04:36:00.962Z,8.17
2019-01-30T04:38:32.439Z,7.53
2019-01-30T04:41:01.830Z,7.47
2019-01-30T04:43:32.561Z,7.20
2019-01-30T04:46:01.907Z,7.07
2019-01-30T04:48:32.855Z,8.10
2019-01-30T04:51:02.278Z,7.43
2019-01-30T04:53:32.564Z,7.37
2019-01-30T04:56:02.649Z,6.80
2019-01-30T04:58:33.009Z,7.20
2019-01-30T05:01:09.405Z,6.97
2019-01-30T05:03:39.570Z,6.63
2019-01-30T05:06:08.957Z,6.73
2019-01-30T05:08:38.388Z,7.00
2019-01-30T05:11:07.778Z,7.20
2019-01-30T05:13:37.169Z,6.63
2019-01-30T05:16:06.618Z,7.50
2019-01-30T05:18:36.005Z,7.43
2019-01-30T05:21:05.528Z,6.67
2019-01-30T05:23:36.463Z,7.53
2019-01-30T05:26:05.891Z,7.90
2019-01-30T05:28:35.810Z,7.60
2019-01-30T05:31:05.227Z,7.60
2019-01-30T05:33:34.601Z,7.28
2019-01-30T05:36:04.273Z,7.20
2019-01-30T05:38:34.617Z,7.70
2019-01-30T05:41:04.820Z,7.60
2019-01-30T05:43:34.132Z,7.20
2019-01-30T05:46:04.060Z,7.77
2019-01-30T05:48:33.473Z,7.50
2019-01-30T05:51:02.857Z,6.93
2019-01-30T05:53:32.323Z,7.62
2019-01-30T05:56:01.725Z,7.43
2019-01-30T05:58:31.148Z,7.70
2019-01-30T06:01:00.565Z,12.20
2019-01-30T06:03:29.925Z,8.40
2019-01-30T06:05:59.878Z,10.10
2019-01-30T06:08:29.325Z,38.30
2019-01-30T06:10:58.716Z,27.20
2019-01-30T06:13:28.104Z,9.37
2019-01-30T06:15:57.890Z,8.30
2019-01-30T06:18:27.288Z,8.63
2019-01-30T06:20:57.519Z,7.37
2019-01-30T06:23:27.929Z,8.43
2019-01-30T06:25:57.771Z,7.73
2019-01-30T06:28:29.518Z,7.83
2019-01-30T06:31:00.557Z,7.30
2019-01-30T06:33:30.297Z,7.13
2019-01-30T06:35:59.676Z,6.70
2019-01-30T06:38:29.310Z,6.60
2019-01-30T06:40:58.685Z,7.00
2019-01-30T06:43:28.085Z,6.60
2019-01-30T06:45:57.506Z,6.53
2019-01-30T06:48:26.883Z,5.70
2019-01-30T06:50:56.989Z,6.90
2019-01-30T06:53:26.793Z,5.63
2019-01-30T06:55:57.550Z,6.03
2019-01-30T06:58:28.523Z,6.70
2019-01-30T07:00:58.259Z,7.00
2019-01-30T07:03:27.641Z,5.67
2019-01-30T07:05:59.344Z,6.37
2019-01-30T07:08:29.341Z,6.30
2019-01-30T07:11:10.424Z,6.27
2019-01-30T07:13:34.147Z,6.90
2019-01-30T07:16:03.608Z,6.03
2019-01-30T07:18:34.044Z,5.40
2019-01-30T07:21:07.130Z,6.00
2019-01-30T07:23:38.144Z,6.40
2019-01-30T07:26:07.473Z,6.30
2019-01-30T07:28:39.240Z,5.63
2019-01-30T07:31:08.628Z,6.63
2019-01-30T07:33:38.111Z,6.13
2019-01-30T07:36:07.576Z,6.90
2019-01-30T07:38:37.464Z,6.93
2019-01-30T07:41:06.845Z,7.63
2019-01-30T07:43:36.225Z,9.63
2019-01-30T07:46:06.325Z,8.43
2019-01-30T07:48:37.192Z,8.77
2019-01-30T07:51:06.723Z,6.90
2019-01-30T07:53:38.511Z,6.93
2019-01-30T07:56:11.520Z,10.43
2019-01-30T07:58:43.397Z,10.43
2019-01-30T08:01:13.100Z,7.97
2019-01-30T08:03:42.498Z,8.37
2019-01-30T08:06:12.396Z,7.47
2019-01-30T08:08:41.932Z,7.90
2019-01-30T08:11:11.493Z,7.50
2019-01-30T08:13:40.942Z,7.90
2019-01-30T08:16:10.436Z,8.83
2019-01-30T08:18:39.820Z,8.30
2019-01-30T08:21:10.581Z,8.60
2019-01-30T08:23:42.625Z,8.13
2019-01-30T08:26:12.274Z,9.10
2019-01-30T08:28:43.356Z,8.13
2019-01-30T08:31:13.014Z,8.00
2019-01-30T08:33:43.456Z,8.47
2019-01-30T08:36:13.829Z,6.80
2019-01-30T08:38:46.087Z,8.20
2019-01-30T08:41:20.843Z,7.40
2019-01-30T08:43:51.941Z,7.33
2019-01-30T08:46:21.369Z,7.12
2019-01-30T08:48:50.865Z,7.40
2019-01-30T08:51:21.191Z,8.65
2019-01-30T08:53:51.349Z,8.13
2019-01-30T08:56:20.729Z,7.47
2019-01-30T08:58:50.137Z,7.72
2019-01-30T09:01:19.592Z,7.00
2019-01-30T09:03:48.973Z,6.30
2019-01-30T09:06:18.390Z,9.53
2019-01-30T09:08:47.995Z,11.20
2019-01-30T09:11:18.097Z,8.08
2019-01-30T09:13:48.032Z,8.13
2019-01-30T09:16:20.260Z,6.40
2019-01-30T09:18:50.539Z,7.27
2019-01-30T09:21:20.090Z,9.10
2019-01-30T09:23:49.896Z,7.87
2019-01-30T09:26:21.479Z,13.87
2019-01-30T09:28:50.848Z,7.80
2019-01-30T09:31:20.824Z,7.62
2019-01-30T09:33:50.839Z,7.10
2019-01-30T09:36:21.423Z,7.12
2019-01-30T09:38:52.407Z,5.90
2019-01-30T09:41:21.913Z,9.08
2019-01-30T09:43:51.353Z,9.53
2019-01-30T09:46:23.513Z,8.50
2019-01-30T09:48:53.493Z,9.07
2019-01-30T09:51:22.812Z,7.47
2019-01-30T09:53:52.960Z,6.33
2019-01-30T09:56:22.344Z,6.85
2019-01-30T09:58:51.720Z,6.33
2019-01-30T10:01:21.317Z,5.93
2019-01-30T10:03:55.865Z,7.93
2019-01-30T10:06:26.105Z,6.85
2019-01-30T10:08:55.512Z,7.27
2019-01-30T10:11:24.845Z,8.15
2019-01-30T10:13:54.240Z,6.87
2019-01-30T10:16:24.509Z,7.10
2019-01-30T10:18:54.879Z,6.37
2019-01-30T10:21:24.629Z,7.28
2019-01-30T10:23:56.366Z,7.65
2019-01-30T10:26:26.098Z,6.62
2019-01-30T10:28:55.473Z,6.60
2019-01-30T10:31:24.872Z,7.50
2019-01-30T10:33:54.265Z,6.80
2019-01-30T10:36:23.641Z,6.80
2019-01-30T10:38:53.858Z,6.70
2019-01-30T10:41:23.181Z,7.25
2019-01-30T10:43:54.925Z,7.23
2019-01-30T10:46:24.740Z,7.30
2019-01-30T10:48:54.964Z,7.35
2019-01-30T10:51:24.607Z,7.30
2019-01-30T10:53:55.764Z,7.40
2019-01-30T10:56:25.140Z,7.47
2019-01-30T10:58:57.308Z,7.50
2019-01-30T11:01:27.377Z,11.20
2019-01-30T11:03:57.586Z,8.30
2019-01-30T11:06:27.692Z,11.73
2019-01-30T11:08:58.309Z,9.37
2019-01-30T11:11:27.684Z,8.40
2019-01-30T11:13:57.798Z,8.63
2019-01-30T11:16:27.223Z,10.60
2019-01-30T11:18:58.721Z,8.90
2019-01-30T11:21:29.636Z,8.60
2019-01-30T11:23:59.023Z,8.83
2019-01-30T11:26:28.378Z,9.00
2019-01-30T11:28:57.754Z,9.70
2019-01-30T11:31:27.195Z,9.28
2019-01-30T11:34:07.049Z,8.50
2019-01-30T11:36:29.628Z,9.20
2019-01-30T11:38:59.259Z,9.50
2019-01-30T11:41:28.647Z,10.93
2019-01-30T11:43:58.571Z,9.23
2019-01-30T11:46:28.401Z,9.25
2019-01-30T11:48:57.894Z,9.93
2019-01-30T11:51:27.279Z,9.25
2019-01-30T11:53:56.689Z,9.43
2019-01-30T11:56:26.081Z,18.02
2019-01-30T11:58:55.826Z,12.40
2019-01-30T12:01:25.626Z,9.23
2019-01-30T12:03:55.480Z,10.80
2019-01-30T12:06:26.148Z,9.33
2019-01-30T12:08:56.105Z,10.13
2019-01-30T12:11:25.496Z,9.40
2019-01-30T12:13:55.088Z,8.70
2019-01-30T12:16:24.497Z,8.60
2019-01-30T12:18:56.335Z,8.40
2019-01-30T12:21:28.544Z,9.75
2019-01-30T12:23:58.324Z,9.77
2019-01-30T12:26:27.909Z,9.30
2019-01-30T12:28:57.531Z,11.80
2019-01-30T12:31:26.952Z,9.83
2019-01-30T12:33:56.340Z,11.13
2019-01-30T12:36:25.725Z,10.32
2019-01-30T12:38:55.144Z,9.90
2019-01-30T12:41:24.578Z,9.80
2019-01-30T12:43:53.917Z,8.97
2019-01-30T12:46:23.365Z,9.40
2019-01-30T12:48:52.744Z,9.40
2019-01-30T12:51:22.237Z,8.32
2019-01-30T12:53:51.780Z,11.57
2019-01-30T12:56:21.180Z,20.15
2019-01-30T12:58:53.388Z,21.40
2019-01-30T13:01:25.055Z,9.40
2019-01-30T13:03:56.593Z,10.23
2019-01-30T13:06:26.970Z,9.90
2019-01-30T13:08:58.563Z,10.57
2019-01-30T13:11:27.948Z,9.07
2019-01-30T13:13:57.824Z,8.67
2019-01-30T13:16:27.733Z,10.30
2019-01-30T13:18:58.563Z,9.18
2019-01-30T13:21:29.189Z,9.20
2019-01-30T13:23:58.824Z,9.77
2019-01-30T13:26:28.338Z,9.20
2019-01-30T13:28:58.449Z,9.10
2019-01-30T13:31:29.802Z,9.70
2019-01-30T13:34:00.897Z,10.13
2019-01-30T13:36:35.405Z,9.20
2019-01-30T13:39:08.897Z,9.73
2019-01-30T13:41:39.256Z,8.87
2019-01-30T13:44:09.421Z,10.20
2019-01-30T13:46:41.918Z,10.20
2019-01-30T13:49:12.642Z,9.17
2019-01-30T13:51:46.229Z,5.80
2019-01-30T13:54:17.828Z,4.42
2019-01-30T13:56:47.749Z,5.07
2019-01-30T13:59:18.412Z,4.55
2019-01-30T14:01:49.810Z,4.90
2019-01-30T14:04:19.244Z,4.30
2019-01-30T14:06:48.673Z,4.17
2019-01-30T14:09:18.462Z,3.87
2019-01-30T14:11:47.841Z,4.03
2019-01-30T14:14:18.028Z,3.83
2019-01-30T14:16:47.580Z,3.80
2019-01-30T14:19:19.903Z,3.10
2019-01-30T14:21:49.541Z,3.03
2019-01-30T14:24:19.156Z,2.93
2019-01-30T14:26:52.234Z,2.87
2019-01-30T14:29:23.481Z,3.02
2019-01-30T14:31:52.841Z,3.70
2019-01-30T14:34:22.229Z,3.37
2019-01-30T14:36:52.775Z,2.73
2019-01-30T14:39:23.367Z,2.10
2019-01-30T14:41:52.854Z,1.97
2019-01-30T14:44:22.912Z,2.10
2019-01-30T14:46:52.284Z,1.90
2019-01-30T14:49:25.656Z,2.37
2019-01-30T14:51:54.996Z,2.00
2019-01-30T14:54:25.656Z,1.60
2019-01-30T14:56:54.973Z,1.63
2019-01-30T14:59:24.364Z,1.83
2019-01-30T15:01:54.571Z,1.83
2019-01-30T15:04:24.949Z,3.13
2019-01-30T15:06:54.265Z,1.57
2019-01-30T15:09:25.473Z,1.70
2019-01-30T15:11:55.098Z,1.50
2019-01-30T15:14:27.736Z,1.80
2019-01-30T15:16:57.906Z,1.50
2019-01-30T15:19:31.624Z,1.30
2019-01-30T15:22:01.005Z,1.07
2019-01-30T15:24:30.422Z,1.30
2019-01-30T15:26:59.792Z,1.20
2019-01-30T15:29:29.179Z,1.53
2019-01-30T15:31:58.881Z,1.00
2019-01-30T15:34:28.258Z,1.37
2019-01-30T15:36:57.641Z,1.80
2019-01-30T15:39:27.074Z,1.60
2019-01-30T15:41:57.959Z,1.33
2019-01-30T15:44:27.337Z,1.47
2019-01-30T15:46:56.862Z,1.50
2019-01-30T15:49:46.608Z,1.27
2019-01-30T15:52:19.194Z,1.60
2019-01-30T15:54:48.577Z,1.47
2019-01-30T15:57:18.586Z,1.40
2019-01-30T15:59:48.100Z,1.73
2019-01-30T16:02:18.297Z,1.63
2019-01-30T16:04:47.658Z,1.50
2019-01-30T16:07:17.137Z,2.53
2019-01-30T16:09:47.041Z,5.40
2019-01-30T16:12:19.964Z,2.60
2019-01-30T16:14:49.621Z,1.90
2019-01-30T16:17:19.919Z,2.40
2019-01-30T16:19:49.779Z,2.20
2019-01-30T16:22:19.443Z,2.52
2019-01-30T16:24:48.938Z,1.30
2019-01-30T16:27:18.846Z,3.17
2019-01-30T16:29:48.321Z,1.90
2019-01-30T16:32:18.274Z,1.98
2019-01-30T16:34:47.671Z,3.23
2019-01-30T16:37:21.926Z,2.70
2019-01-30T16:39:51.229Z,4.03
2019-01-30T16:42:24.939Z,3.50
2019-01-30T16:44:54.396Z,2.80
2019-01-30T16:47:26.500Z,3.13
2019-01-30T16:49:56.566Z,2.63
2019-01-30T16:52:31.991Z,2.10
2019-01-30T16:55:02.206Z,1.90
2019-01-30T16:57:33.816Z,2.70
2019-01-30T17:00:03.549Z,1.80
2019-01-30T17:02:33.246Z,2.40
2019-01-30T17:05:02.636Z,2.30
2019-01-30T17:07:32.548Z,1.80
2019-01-30T17:10:02.716Z,1.83
2019-01-30T17:12:32.908Z,1.40
2019-01-30T17:15:02.688Z,2.50
2019-01-30T17:17:32.378Z,3.12
2019-01-30T17:20:01.750Z,2.30
2019-01-30T17:22:31.617Z,2.00
2019-01-30T17:25:01.703Z,2.07
2019-01-30T17:27:33.937Z,3.23
2019-01-30T17:30:03.625Z,5.27
2019-01-30T17:32:35.536Z,3.23
2019-01-30T17:35:05.564Z,2.67
2019-01-30T17:37:34.969Z,4.08
2019-01-30T17:40:05.596Z,2.90
2019-01-30T17:42:35.934Z,4.20
2019-01-30T17:45:06.793Z,4.40
2019-01-30T17:47:36.316Z,3.30
2019-01-30T17:50:09.115Z,3.63
2019-01-30T17:52:45.903Z,3.50
2019-01-30T17:55:16.589Z,3.95
2019-01-30T17:57:45.970Z,3.03
2019-01-30T18:00:24.293Z,2.75
2019-01-30T18:02:54.711Z,2.90
2019-01-30T18:05:29.523Z,2.40
2019-01-30T18:07:58.871Z,1.60
2019-01-30T18:10:29.758Z,2.60
2019-01-30T18:13:01.309Z,2.05
2019-01-30T18:15:37.681Z,2.40
2019-01-30T18:18:07.548Z,2.15
2019-01-30T18:20:37.673Z,2.37
2019-01-30T18:23:07.429Z,2.17
2019-01-30T18:25:38.016Z,2.53
2019-01-30T18:28:07.897Z,2.73
2019-01-30T18:30:39.089Z,1.97
2019-01-30T18:33:08.469Z,2.50
2019-01-30T18:35:38.425Z,2.30
2019-01-30T18:38:08.633Z,2.43
2019-01-30T18:40:37.985Z,2.40
2019-01-30T18:43:07.704Z,2.57
2019-01-30T18:45:37.441Z,3.35
2019-01-30T18:48:08.083Z,4.67
2019-01-30T18:50:38.910Z,3.97
2019-01-30T18:53:08.642Z,3.17
2019-01-30T18:55:38.016Z,3.00
2019-01-30T18:58:07.545Z,2.50
2019-01-30T19:00:44.584Z,2.40
2019-01-30T19:03:16.984Z,2.60
2019-01-30T19:05:47.221Z,2.50
2019-01-30T19:08:23.538Z,3.83
2019-01-30T19:10:54.906Z,3.83
2019-01-30T19:13:26.099Z,5.03
2019-01-30T19:15:56.524Z,4.50
2019-01-30T19:18:29.143Z,4.57
2019-01-30T19:21:00.444Z,3.57
2019-01-30T19:23:31.639Z,4.28
2019-01-30T19:26:03.170Z,3.97
2019-01-30T19:28:32.877Z,4.83
2019-01-30T19:31:02.524Z,3.30
2019-01-30T19:33:31.979Z,2.60
2019-01-30T19:36:03.520Z,2.30
2019-01-30T19:38:32.988Z,3.83
2019-01-30T19:41:02.968Z,2.57
2019-01-30T19:43:32.641Z,3.13
2019-01-30T19:46:02.217Z,3.63
2019-01-30T19:48:31.786Z,3.00
2019-01-30T19:51:04.700Z,3.00
2019-01-30T19:53:34.405Z,3.05
2019-01-30T19:56:03.983Z,3.83
2019-01-30T19:58:33.377Z,2.90
2019-01-30T20:01:02.828Z,4.20
2019-01-30T20:03:36.211Z,3.77
2019-01-30T20:06:06.870Z,3.30
2019-01-30T20:08:39.114Z,3.57
2019-01-30T20:11:09.089Z,2.70
2019-01-30T20:13:38.629Z,3.03
2019-01-30T20:16:11.547Z,2.10
2019-01-30T20:18:40.932Z,1.80
2019-01-30T20:21:10.317Z,2.40
2019-01-30T20:23:40.173Z,2.20
2019-01-30T20:26:09.600Z,2.30
2019-01-30T20:28:42.058Z,1.90
2019-01-30T20:31:11.766Z,2.20
2019-01-30T20:33:41.157Z,2.70
2019-01-30T20:36:12.518Z,2.40
2019-01-30T20:38:48.866Z,2.40
2019-01-30T20:41:18.810Z,3.00
2019-01-30T20:43:48.696Z,2.77
2019-01-30T20:46:18.838Z,2.60
2019-01-30T20:48:51.796Z,3.03
2019-01-30T20:51:19.909Z,3.30
2019-01-30T20:53:50.316Z,3.57
2019-01-30T20:56:19.753Z,3.40
2019-01-30T20:58:49.294Z,4.60
2019-01-30T21:01:19.370Z,3.00
2019-01-30T21:03:48.923Z,6.40
2019-01-30T21:06:18.928Z,3.80
2019-01-30T21:08:50.311Z,4.23
2019-01-30T21:11:20.654Z,3.17
2019-01-30T21:13:50.136Z,3.90
2019-01-30T21:16:22.036Z,4.43
2019-01-30T21:18:52.437Z,5.00
2019-01-30T21:21:23.401Z,3.73
2019-01-30T21:23:57.978Z,5.80
2019-01-30T21:26:27.145Z,6.05
2019-01-30T21:28:57.565Z,5.27
2019-01-30T21:31:27.943Z,4.13
2019-01-30T21:33:57.472Z,3.80
2019-01-30T21:36:27.867Z,4.58
2019-01-30T21:38:57.220Z,3.97
2019-01-30T21:41:26.613Z,4.08
2019-01-30T21:43:56.007Z,5.17
2019-01-30T21:46:30.530Z,3.50
2019-01-30T21:49:03.159Z,4.20
2019-01-30T21:51:33.090Z,3.80
2019-01-30T21:54:03.342Z,3.10
2019-01-30T21:56:32.757Z,4.57
2019-01-30T21:59:03.695Z,3.47
2019-01-30T22:01:33.874Z,3.10
2019-01-30T22:04:03.541Z,3.40
2019-01-30T22:06:34.003Z,4.20
2019-01-30T22:09:06.160Z,5.33
2019-01-30T22:11:36.184Z,4.07
2019-01-30T22:14:08.505Z,4.90
2019-01-30T22:16:38.445Z,3.67
2019-01-30T22:19:07.960Z,3.40
2019-01-30T22:21:37.342Z,2.83
2019-01-30T22:24:07.243Z,2.67
2019-01-30T22:26:36.643Z,2.53
2019-01-30T22:29:07.070Z,3.70
2019-01-30T22:31:36.754Z,2.83
2019-01-30T22:34:06.616Z,2.50
2019-01-30T22:36:37.278Z,3.57
2019-01-30T22:39:13.453Z,2.80
2019-01-30T22:41:43.385Z,2.60
2019-01-30T22:44:16.198Z,2.90
2019-01-30T22:46:48.525Z,2.87
2019-01-30T22:49:19.092Z,3.17
2019-01-30T22:51:50.512Z,2.90
2019-01-30T22:54:20.185Z,3.30
2019-01-30T22:56:49.878Z,3.03
2019-01-30T22:59:20.039Z,3.50
2019-01-30T23:01:53.657Z,3.13
2019-01-30T23:05:07.738Z,3.80
2019-01-30T23:08:24.698Z,3.92
2019-01-30T23:11:33.483Z,6.15
2019-01-30T23:14:14.645Z,5.77
2019-01-30T23:17:13.055Z,5.50
2019-01-30T23:20:05.141Z,5.30
2019-01-30T23:23:20.635Z,6.03
2019-01-30T23:26:29.546Z,6.07
2019-01-30T23:29:55.049Z,5.57
2019-01-30T23:32:52.091Z,4.20
2019-01-30T23:35:35.273Z,4.30
2019-01-30T23:38:54.955Z,4.17
2019-01-30T23:41:45.961Z,4.37
2019-01-30T23:44:48.277Z,4.97
2019-01-30T23:47:54.119Z,4.80
2019-01-30T23:50:43.284Z,5.13
2019-01-30T23:53:52.381Z,4.33
2019-01-30T23:56:46.805Z,4.83
2019-01-30T23:59:47.849Z,4.97
